createdAt,value
2023-07-08T00:01:42.535Z,74.34
2023-07-08T00:04:12.107Z,74.46
2023-07-08T00:06:41.453Z,74.35
2023-07-08T00:09:12.684Z,74.28
2023-07-08T00:11:41.459Z,74.26
2023-07-08T00:14:10.647Z,74.64
2023-07-08T00:16:41.880Z,74.77
2023-07-08T00:19:12.563Z,75.23
2023-07-08T00:21:42.102Z,75.55
2023-07-08T00:24:10.837Z,75.66
2023-07-08T00:26:40.687Z,75.58
2023-07-08T00:29:13.609Z,75.83
2023-07-08T00:31:42.532Z,75.99
2023-07-08T00:34:12.388Z,76.22
2023-07-08T00:36:42.371Z,76.33
2023-07-08T00:39:15.877Z,76.14
2023-07-08T00:41:45.476Z,76.18
2023-07-08T00:44:14.908Z,76.37
2023-07-08T00:46:51.566Z,76.38
2023-07-08T00:49:39.237Z,76.50
2023-07-08T00:52:35.946Z,75.95
2023-07-08T00:55:10.691Z,75.87
2023-07-08T00:57:43.411Z,76.11
2023-07-08T01:00:17.662Z,76.26
2023-07-08T01:02:53.393Z,76.26
2023-07-08T01:05:26.518Z,76.39
2023-07-08T01:07:59.136Z,76.40
2023-07-08T01:10:38.181Z,76.55
2023-07-08T01:13:09.925Z,76.47
2023-07-08T01:15:42.632Z,76.43
2023-07-08T01:18:16.890Z,76.49
2023-07-08T01:20:48.547Z,76.45
2023-07-08T01:23:19.878Z,76.21
2023-07-08T01:25:49.080Z,76.19
2023-07-08T01:28:19.493Z,76.02
2023-07-08T01:30:50.422Z,76.03
2023-07-08T01:33:22.391Z,75.87
2023-07-08T01:35:53.142Z,75.98
2023-07-08T01:38:27.580Z,75.98
2023-07-08T01:40:58.547Z,76.15
2023-07-08T01:43:27.901Z,76.23
2023-07-08T01:46:01.830Z,76.30
2023-07-08T01:48:37.832Z,76.57
2023-07-08T01:51:08.718Z,76.60
2023-07-08T01:53:41.246Z,77.02
2023-07-08T01:56:11.555Z,77.28
2023-07-08T01:58:41.641Z,77.17
2023-07-08T02:01:14.780Z,77.42
2023-07-08T02:03:46.980Z,77.41
2023-07-08T02:06:16.408Z,77.62
2023-07-08T02:08:45.870Z,77.76
2023-07-08T02:11:15.320Z,77.92
2023-07-08T02:13:44.215Z,77.78
2023-07-08T02:16:14.059Z,78.03
2023-07-08T02:18:43.799Z,78.26
2023-07-08T02:21:13.873Z,78.48
2023-07-08T02:23:44.743Z,78.61
2023-07-08T02:26:14.902Z,78.53
2023-07-08T02:28:44.541Z,78.46
2023-07-08T02:31:13.343Z,78.29
2023-07-08T02:33:42.079Z,78.22
2023-07-08T02:36:13.661Z,77.99
2023-07-08T02:38:43.772Z,77.93
2023-07-08T02:41:12.597Z,78.01
2023-07-08T02:43:42.508Z,78.22
2023-07-08T02:46:11.721Z,78.51
2023-07-08T02:48:42.266Z,78.51
2023-07-08T02:51:11.848Z,78.81
2023-07-08T02:53:40.990Z,78.76
2023-07-08T02:56:09.639Z,78.35
2023-07-08T02:58:38.659Z,78.29
2023-07-08T03:01:07.812Z,78.25
2023-07-08T03:03:37.060Z,78.37
2023-07-08T03:06:06.805Z,78.48
2023-07-08T03:08:36.233Z,78.82
2023-07-08T03:11:08.022Z,78.93
2023-07-08T03:13:38.251Z,79.40
2023-07-08T03:16:12.897Z,80.36
2023-07-08T03:18:47.538Z,81.21
2023-07-08T03:21:18.526Z,81.05
2023-07-08T03:23:48.451Z,79.73
2023-07-08T03:26:19.561Z,78.16
2023-07-08T03:28:49.861Z,77.01
2023-07-08T03:31:19.459Z,76.37
2023-07-08T03:33:48.478Z,75.30
2023-07-08T03:36:24.337Z,74.27
2023-07-08T03:38:56.803Z,73.01
2023-07-08T03:41:26.617Z,72.45
2023-07-08T03:43:58.834Z,72.30
2023-07-08T03:46:29.016Z,71.25
2023-07-08T03:48:57.795Z,69.99
2023-07-08T03:51:30.322Z,68.72
2023-07-08T03:53:59.248Z,67.06
2023-07-08T03:56:28.605Z,65.13
2023-07-08T03:58:57.625Z,64.07
2023-07-08T04:01:27.241Z,63.17
2023-07-08T04:03:58.089Z,61.49
2023-07-08T04:06:27.324Z,60.26
2023-07-08T04:08:55.978Z,59.84
2023-07-08T04:11:26.306Z,58.57
2023-07-08T04:13:56.278Z,57.14
2023-07-08T04:16:29.600Z,56.38
2023-07-08T04:18:59.460Z,55.68
2023-07-08T04:21:30.699Z,54.76
2023-07-08T04:23:59.650Z,53.66
2023-07-08T04:26:28.509Z,52.88
2023-07-08T04:28:57.436Z,52.33
2023-07-08T04:31:26.621Z,51.55
2023-07-08T04:33:55.190Z,50.69
2023-07-08T04:36:25.427Z,49.21
2023-07-08T04:38:54.403Z,48.23
2023-07-08T04:41:23.432Z,47.22
2023-07-08T04:43:53.630Z,46.17
2023-07-08T04:46:31.559Z,45.47
2023-07-08T04:49:01.009Z,44.35
2023-07-08T04:51:30.419Z,43.89
2023-07-08T04:53:59.350Z,43.41
2023-07-08T04:56:38.375Z,43.10
2023-07-08T04:59:09.052Z,42.64
2023-07-08T05:01:38.302Z,42.02
2023-07-08T05:04:07.783Z,41.29
2023-07-08T05:06:36.601Z,40.71
2023-07-08T05:09:06.885Z,39.92
2023-07-08T05:11:36.323Z,39.29
2023-07-08T05:14:06.748Z,38.83
2023-07-08T05:16:36.669Z,38.33
2023-07-08T05:19:06.320Z,38.03
2023-07-08T05:21:35.369Z,37.88
2023-07-08T05:24:06.757Z,37.60
2023-07-08T05:26:36.114Z,37.21
2023-07-08T05:29:06.082Z,36.61
2023-07-08T05:34:06.812Z,36.39
2023-07-08T05:36:35.408Z,36.09
2023-07-08T05:39:05.085Z,35.51
2023-07-08T05:41:33.702Z,35.09
2023-07-08T05:44:02.664Z,34.85
2023-07-08T05:46:32.667Z,34.25
2023-07-08T05:49:02.214Z,34.36
2023-07-08T05:51:30.748Z,34.51
2023-07-08T05:53:59.659Z,33.85
2023-07-08T05:56:29.007Z,33.56
2023-07-08T05:58:57.590Z,33.13
2023-07-08T06:01:26.278Z,32.63
2023-07-08T06:03:58.537Z,32.67
2023-07-08T06:06:27.821Z,32.70
2023-07-08T06:08:57.234Z,32.27
2023-07-08T06:11:26.297Z,31.08
2023-07-08T06:13:54.957Z,30.76
2023-07-08T06:18:57.955Z,30.07
2023-07-08T06:21:26.452Z,29.79
2023-07-08T06:23:55.301Z,29.41
2023-07-08T06:26:26.285Z,28.33
2023-07-08T06:28:55.138Z,27.46
2023-07-08T06:31:24.171Z,26.72
2023-07-08T06:33:52.592Z,26.46
2023-07-08T06:36:21.813Z,25.97
2023-07-08T06:38:52.257Z,25.74
2023-07-08T06:41:21.012Z,25.59
2023-07-08T06:43:51.114Z,25.09
2023-07-08T06:46:21.191Z,24.18
2023-07-08T06:48:49.538Z,24.34
2023-07-08T06:51:18.593Z,24.26
2023-07-08T06:53:47.188Z,24.38
2023-07-08T06:56:15.807Z,24.19
2023-07-08T06:58:45.222Z,23.54
2023-07-08T07:01:13.873Z,23.77
2023-07-08T07:03:42.784Z,23.86
2023-07-08T07:06:11.500Z,23.97
2023-07-08T07:08:41.174Z,23.52
2023-07-08T07:11:10.337Z,23.85
2023-07-08T07:13:39.421Z,24.08
2023-07-08T07:16:07.948Z,24.61
2023-07-08T07:18:36.887Z,24.41
2023-07-08T07:21:07.837Z,23.67
2023-07-08T07:23:37.342Z,24.20
2023-07-08T07:26:06.410Z,24.43
2023-07-08T07:28:35.274Z,24.79
2023-07-08T07:31:06.900Z,24.82
2023-07-08T07:33:35.874Z,25.05
2023-07-08T07:36:06.041Z,25.28
2023-07-08T07:38:35.098Z,25.92
2023-07-08T07:41:06.517Z,25.59
2023-07-08T07:43:35.894Z,25.85
2023-07-08T07:46:06.121Z,25.92
2023-07-08T07:48:35.212Z,26.07
2023-07-08T07:51:05.171Z,26.89
2023-07-08T07:53:34.455Z,26.98
2023-07-08T07:56:05.123Z,27.37
2023-07-08T07:58:34.812Z,27.75
2023-07-08T08:01:04.229Z,27.34
2023-07-08T08:03:34.016Z,27.66
2023-07-08T08:06:04.087Z,27.93
2023-07-08T08:08:34.316Z,28.17
2023-07-08T08:11:04.918Z,27.93
2023-07-08T08:13:34.376Z,29.25
2023-07-08T08:16:04.733Z,28.06
2023-07-08T08:18:34.846Z,28.44
2023-07-08T08:21:04.674Z,29.07
2023-07-08T08:23:33.691Z,30.22
2023-07-08T08:26:04.217Z,30.34
2023-07-08T08:28:33.724Z,31.20
2023-07-08T08:31:03.025Z,30.88
2023-07-08T08:33:32.570Z,29.95
2023-07-08T08:36:03.053Z,28.81
2023-07-08T08:38:32.317Z,28.82
2023-07-08T08:41:05.795Z,29.30
2023-07-08T08:43:40.189Z,29.57
2023-07-08T08:46:16.288Z,29.59
2023-07-08T08:49:00.371Z,30.00
2023-07-08T08:51:33.002Z,29.90
2023-07-08T08:54:03.055Z,29.83
2023-07-08T08:56:40.400Z,29.76
2023-07-08T08:59:17.101Z,29.26
2023-07-08T09:01:48.713Z,29.83
2023-07-08T09:04:23.705Z,29.94
2023-07-08T09:06:58.000Z,30.04
2023-07-08T09:09:36.649Z,30.67
2023-07-08T09:12:10.920Z,31.49
2023-07-08T09:14:40.632Z,31.16
2023-07-08T09:17:19.973Z,31.22
2023-07-08T09:20:06.287Z,30.56
2023-07-08T09:22:44.009Z,29.94
2023-07-08T09:25:25.430Z,29.53
2023-07-08T09:27:54.894Z,29.24
2023-07-08T09:30:25.772Z,29.16
2023-07-08T09:32:54.886Z,29.13
2023-07-08T09:35:26.755Z,29.17
2023-07-08T09:37:56.893Z,29.26
2023-07-08T09:40:31.830Z,28.50
2023-07-08T09:43:04.977Z,28.69
2023-07-08T09:45:45.636Z,29.48
2023-07-08T09:48:20.800Z,29.91
2023-07-08T09:50:52.610Z,30.04
2023-07-08T09:53:22.045Z,29.96
2023-07-08T09:55:53.462Z,29.62
2023-07-08T09:58:26.386Z,28.98
2023-07-08T10:00:58.969Z,29.06
2023-07-08T10:03:32.359Z,29.09
2023-07-08T10:06:06.932Z,29.34
2023-07-08T10:08:43.658Z,29.34
2023-07-08T10:11:22.203Z,29.39
2023-07-08T10:14:11.714Z,29.17
2023-07-08T10:16:45.499Z,29.49
2023-07-08T10:19:21.528Z,28.89
2023-07-08T10:22:07.136Z,30.17
2023-07-08T10:25:02.658Z,30.41
2023-07-08T10:27:41.673Z,29.97
2023-07-08T10:30:23.227Z,30.03
2023-07-08T10:33:14.472Z,29.98
2023-07-08T10:35:56.842Z,29.49
2023-07-08T10:38:44.167Z,29.58
2023-07-08T10:41:26.006Z,30.52
2023-07-08T10:44:09.538Z,29.72
2023-07-08T10:47:01.991Z,29.25
2023-07-08T10:49:50.272Z,30.01
2023-07-08T10:52:39.431Z,30.90
2023-07-08T10:55:30.453Z,29.93
2023-07-08T10:58:21.995Z,30.00
2023-07-08T11:01:04.630Z,29.18
2023-07-08T11:04:00.222Z,29.89
2023-07-08T11:06:44.301Z,30.77
2023-07-08T11:09:20.647Z,30.64
2023-07-08T11:11:56.208Z,30.09
2023-07-08T11:14:33.076Z,29.70
2023-07-08T11:17:17.911Z,29.39
2023-07-08T11:19:56.921Z,29.55
2023-07-08T11:22:33.154Z,30.08
2023-07-08T11:25:18.738Z,29.85
2023-07-08T11:27:54.034Z,29.07
2023-07-08T11:30:30.826Z,28.99
2023-07-08T11:33:08.444Z,29.98
2023-07-08T11:35:45.845Z,30.28
2023-07-08T11:38:19.853Z,29.11
2023-07-08T11:40:58.106Z,29.33
2023-07-08T11:43:36.483Z,29.67
2023-07-08T11:46:14.632Z,30.09
2023-07-08T11:48:51.087Z,30.69
2023-07-08T11:51:31.251Z,31.13
2023-07-08T11:54:13.590Z,30.86
2023-07-08T11:56:59.954Z,30.79
2023-07-08T11:59:35.218Z,29.60
2023-07-08T12:02:13.988Z,30.03
2023-07-08T12:05:04.231Z,29.77
2023-07-08T12:07:39.857Z,28.96
2023-07-08T12:10:18.827Z,29.16
2023-07-08T12:12:50.705Z,29.38
2023-07-08T12:15:27.618Z,28.85
2023-07-08T12:18:04.207Z,28.46
2023-07-08T12:20:39.464Z,28.84
2023-07-08T12:23:16.177Z,29.12
2023-07-08T12:25:49.978Z,29.34
2023-07-08T12:28:24.376Z,28.82
2023-07-08T12:31:00.693Z,28.73
2023-07-08T12:33:35.312Z,29.19
2023-07-08T12:36:11.380Z,29.11
2023-07-08T12:38:46.568Z,28.20
2023-07-08T12:41:23.926Z,28.69
2023-07-08T12:43:55.894Z,28.84
2023-07-08T12:46:29.156Z,28.82
2023-07-08T12:49:01.287Z,29.02
2023-07-08T12:51:33.661Z,28.45
2023-07-08T12:54:06.539Z,27.41
2023-07-08T12:56:39.687Z,27.52
2023-07-08T12:59:14.532Z,28.11
2023-07-08T13:01:50.490Z,28.08
2023-07-08T13:04:22.971Z,28.01
2023-07-08T13:06:56.393Z,27.70
2023-07-08T13:09:39.677Z,27.81
2023-07-08T13:12:19.166Z,27.71
2023-07-08T13:14:53.222Z,27.29
2023-07-08T13:17:25.332Z,27.37
2023-07-08T13:19:57.979Z,27.16
2023-07-08T13:22:31.791Z,27.05
2023-07-08T13:25:16.099Z,26.61
2023-07-08T13:27:58.482Z,27.31
2023-07-08T13:30:32.277Z,27.13
2023-07-08T13:33:05.075Z,26.88
2023-07-08T13:35:42.942Z,27.00
2023-07-08T13:38:19.702Z,27.16
2023-07-08T13:40:55.371Z,27.05
2023-07-08T13:43:31.842Z,27.75
2023-07-08T13:46:03.992Z,27.48
2023-07-08T13:48:41.224Z,26.52
2023-07-08T13:51:19.053Z,26.38
2023-07-08T13:53:55.684Z,26.15
2023-07-08T13:56:32.892Z,26.49
2023-07-08T13:59:07.834Z,26.80
2023-07-08T14:01:44.577Z,27.22
2023-07-08T14:04:20.845Z,27.42
2023-07-08T14:06:53.179Z,28.03
2023-07-08T14:09:26.548Z,28.09
2023-07-08T14:11:58.867Z,28.18
2023-07-08T14:14:30.860Z,27.78
2023-07-08T14:17:03.626Z,27.72
2023-07-08T14:19:37.581Z,27.31
2023-07-08T14:22:25.707Z,27.30
2023-07-08T14:24:59.246Z,27.28
2023-07-08T14:27:32.956Z,26.94
2023-07-08T14:30:05.843Z,26.87
2023-07-08T14:32:38.070Z,26.99
2023-07-08T14:35:20.210Z,26.94
2023-07-08T14:37:52.092Z,26.89
2023-07-08T14:40:27.973Z,26.81
2023-07-08T14:43:04.516Z,27.15
2023-07-08T14:45:45.624Z,27.24
2023-07-08T14:48:18.867Z,27.22
2023-07-08T14:50:51.024Z,27.16
2023-07-08T14:53:23.205Z,27.55
2023-07-08T14:55:59.638Z,27.51
2023-07-08T14:58:34.999Z,27.29
2023-07-08T15:01:15.572Z,27.44
2023-07-08T15:03:48.057Z,27.51
2023-07-08T15:06:20.329Z,27.01
2023-07-08T15:08:53.212Z,26.84
2023-07-08T15:11:27.540Z,26.78
2023-07-08T15:13:59.860Z,27.17
2023-07-08T15:16:32.779Z,27.62
2023-07-08T15:19:10.300Z,27.39
2023-07-08T15:21:42.889Z,27.51
2023-07-08T15:24:16.568Z,27.10
2023-07-08T15:26:51.477Z,27.23
2023-07-08T15:29:25.898Z,27.43
2023-07-08T15:31:59.349Z,27.26
2023-07-08T15:34:31.511Z,27.31
2023-07-08T15:37:04.029Z,27.60
2023-07-08T15:39:36.130Z,28.09
2023-07-08T15:42:12.405Z,27.92
2023-07-08T15:44:44.850Z,27.81
2023-07-08T15:47:17.077Z,27.64
2023-07-08T15:49:49.529Z,27.86
2023-07-08T15:52:21.439Z,28.02
2023-07-08T15:54:55.413Z,28.16
2023-07-08T15:57:28.230Z,28.35
2023-07-08T16:00:00.329Z,28.63
2023-07-08T16:02:36.311Z,28.66
2023-07-08T16:05:11.710Z,28.35
2023-07-08T16:07:43.809Z,28.90
2023-07-08T16:10:16.006Z,28.89
2023-07-08T16:12:50.493Z,28.95
2023-07-08T16:15:29.484Z,28.45
2023-07-08T16:18:03.082Z,28.28
2023-07-08T16:20:35.066Z,28.40
2023-07-08T16:23:07.537Z,28.11
2023-07-08T16:25:44.940Z,28.01
2023-07-08T16:28:24.182Z,28.21
2023-07-08T16:30:57.034Z,28.50
2023-07-08T16:33:30.559Z,28.55
2023-07-08T16:36:02.800Z,28.90
2023-07-08T16:38:34.530Z,28.84
2023-07-08T16:41:07.186Z,28.63
2023-07-08T16:43:40.135Z,28.32
2023-07-08T16:46:13.681Z,28.42
2023-07-08T16:48:45.925Z,29.37
2023-07-08T16:51:20.464Z,29.50
2023-07-08T16:53:53.585Z,29.81
2023-07-08T16:56:26.148Z,30.13
2023-07-08T16:59:00.116Z,30.14
2023-07-08T17:01:33.649Z,31.22
2023-07-08T17:04:07.714Z,32.07
2023-07-08T17:06:40.735Z,32.70
2023-07-08T17:09:15.353Z,33.23
2023-07-08T17:11:47.852Z,33.76
2023-07-08T17:14:20.568Z,34.38
2023-07-08T17:16:53.943Z,34.09
2023-07-08T17:19:25.758Z,34.61
2023-07-08T17:21:57.813Z,34.74
2023-07-08T17:24:29.939Z,34.81
2023-07-08T17:27:02.155Z,34.75
2023-07-08T17:29:34.745Z,35.11
2023-07-08T17:32:10.423Z,35.77
2023-07-08T17:34:42.561Z,36.49
2023-07-08T17:37:14.730Z,37.08
2023-07-08T17:39:46.626Z,37.83
2023-07-08T17:42:18.231Z,39.17
2023-07-08T17:44:50.433Z,39.30
2023-07-08T17:47:23.561Z,40.70
2023-07-08T17:49:56.452Z,40.88
2023-07-08T17:52:28.161Z,40.81
2023-07-08T17:55:00.743Z,41.09
2023-07-08T17:57:33.953Z,40.72
2023-07-08T18:00:11.003Z,40.53
2023-07-08T18:02:45.276Z,40.95
2023-07-08T18:05:20.881Z,40.99
2023-07-08T18:07:55.688Z,41.22
2023-07-08T18:10:30.497Z,41.85
2023-07-08T18:13:08.730Z,42.50
2023-07-08T18:15:58.487Z,43.02
2023-07-08T18:18:32.046Z,43.24
2023-07-08T18:21:04.378Z,43.96
2023-07-08T18:23:36.853Z,44.36
2023-07-08T18:26:10.421Z,44.48
2023-07-08T18:28:43.084Z,44.47
2023-07-08T18:31:15.948Z,44.78
2023-07-08T18:33:48.437Z,45.20
2023-07-08T18:36:20.863Z,44.88
2023-07-08T18:38:54.298Z,44.83
2023-07-08T18:41:29.508Z,45.14
2023-07-08T18:44:02.567Z,45.56
2023-07-08T18:46:35.941Z,46.12
2023-07-08T18:49:09.418Z,46.80
2023-07-08T18:51:44.202Z,47.50
2023-07-08T18:54:20.783Z,48.09
2023-07-08T18:56:53.478Z,49.05
2023-07-08T18:59:26.372Z,49.51
2023-07-08T19:01:59.177Z,50.11
2023-07-08T19:04:32.224Z,50.64
2023-07-08T19:07:07.292Z,51.27
2023-07-08T19:09:40.635Z,52.09
2023-07-08T19:12:14.178Z,52.48
2023-07-08T19:14:46.490Z,52.68
2023-07-08T19:17:18.484Z,52.76
2023-07-08T19:19:51.334Z,53.19
2023-07-08T19:22:24.303Z,53.54
2023-07-08T19:24:57.164Z,53.86
2023-07-08T19:27:29.437Z,54.29
2023-07-08T19:30:03.080Z,54.47
2023-07-08T19:32:35.910Z,54.80
2023-07-08T19:35:12.854Z,55.29
2023-07-08T19:37:44.758Z,55.71
2023-07-08T19:40:20.406Z,56.19
2023-07-08T19:42:54.969Z,56.55
2023-07-08T19:45:29.820Z,57.10
2023-07-08T19:48:01.738Z,57.45
2023-07-08T19:50:33.666Z,57.52
2023-07-08T19:53:06.204Z,57.78
2023-07-08T19:55:39.637Z,58.16
2023-07-08T19:58:15.296Z,58.32
2023-07-08T20:00:48.651Z,58.47
2023-07-08T20:03:21.689Z,58.57
2023-07-08T20:05:53.806Z,58.96
2023-07-08T20:08:31.614Z,59.03
2023-07-08T20:11:03.207Z,59.45
2023-07-08T20:13:36.338Z,59.67
2023-07-08T20:16:17.141Z,59.75
2023-07-08T20:18:50.215Z,60.06
2023-07-08T20:21:22.775Z,60.29
2023-07-08T20:23:55.834Z,60.65
2023-07-08T20:26:34.072Z,60.92
2023-07-08T20:29:06.783Z,60.90
2023-07-08T20:31:43.035Z,61.24
2023-07-08T20:34:18.691Z,61.60
2023-07-08T20:36:52.135Z,61.91
2023-07-08T20:39:29.123Z,61.85
2023-07-08T20:42:07.183Z,62.21
2023-07-08T20:44:56.922Z,62.38
2023-07-08T20:47:30.263Z,62.58
2023-07-08T20:50:03.479Z,63.05
2023-07-08T20:52:36.370Z,63.33
2023-07-08T20:55:12.509Z,63.62
2023-07-08T20:57:47.787Z,63.95
2023-07-08T21:00:32.007Z,64.22
2023-07-08T21:03:12.012Z,64.41
2023-07-08T21:05:44.306Z,64.81
2023-07-08T21:08:28.611Z,65.04
2023-07-08T21:11:01.625Z,64.92
2023-07-08T21:13:34.298Z,65.02
2023-07-08T21:16:12.851Z,65.21
2023-07-08T21:18:46.543Z,65.27
2023-07-08T21:21:20.375Z,65.55
2023-07-08T21:23:54.760Z,65.96
2023-07-08T21:26:30.571Z,66.21
2023-07-08T21:29:05.274Z,66.48
2023-07-08T21:31:37.984Z,66.87
2023-07-08T21:34:11.834Z,67.18
2023-07-08T21:36:48.047Z,67.60
2023-07-08T21:39:29.531Z,68.27
2023-07-08T21:42:04.782Z,68.41
2023-07-08T21:44:36.886Z,68.55
2023-07-08T21:47:09.714Z,68.81
2023-07-08T21:49:42.103Z,69.20
2023-07-08T21:52:15.995Z,69.25
2023-07-08T21:54:47.925Z,69.55
2023-07-08T21:57:20.784Z,69.51
2023-07-08T21:59:52.968Z,69.12
2023-07-08T22:02:26.278Z,69.20
2023-07-08T22:04:59.489Z,69.39
2023-07-08T22:07:31.407Z,69.66
2023-07-08T22:10:03.882Z,69.92
2023-07-08T22:12:37.992Z,70.26
2023-07-08T22:15:23.361Z,70.56
2023-07-08T22:18:00.556Z,70.80
2023-07-08T22:20:33.774Z,71.26
2023-07-08T22:23:06.781Z,71.39
2023-07-08T22:25:38.932Z,71.53
2023-07-08T22:28:13.493Z,71.51
2023-07-08T22:30:47.341Z,71.56
2023-07-08T22:33:24.012Z,71.60
2023-07-08T22:35:58.353Z,71.57
2023-07-08T22:38:31.834Z,71.59
2023-07-08T22:41:04.009Z,71.91
2023-07-08T22:43:38.012Z,71.61
2023-07-08T22:46:11.820Z,71.69
2023-07-08T22:48:46.600Z,71.72
2023-07-08T22:51:18.779Z,71.85
2023-07-08T22:53:51.054Z,71.81
2023-07-08T22:56:23.127Z,71.84
2023-07-08T22:58:55.352Z,72.02
2023-07-08T23:01:26.985Z,71.85
2023-07-08T23:03:59.205Z,71.93
2023-07-08T23:06:32.906Z,71.84
2023-07-08T23:09:05.376Z,71.67
2023-07-08T23:11:37.737Z,71.78
2023-07-08T23:14:10.760Z,71.93
2023-07-08T23:16:43.157Z,72.15
2023-07-08T23:19:15.167Z,72.60
2023-07-08T23:21:48.222Z,72.64
2023-07-08T23:24:20.100Z,72.78
2023-07-08T23:26:52.325Z,72.76
2023-07-08T23:29:26.128Z,72.98
2023-07-08T23:31:59.814Z,73.00
2023-07-08T23:34:31.704Z,73.13
2023-07-08T23:37:04.565Z,73.09
2023-07-08T23:39:36.358Z,73.14
2023-07-08T23:42:13.064Z,73.18
2023-07-08T23:44:45.232Z,73.36
2023-07-08T23:47:23.497Z,73.35
2023-07-08T23:49:55.895Z,73.58
2023-07-08T23:52:28.566Z,73.74
2023-07-08T23:55:01.128Z,73.84
2023-07-08T23:57:33.035Z,73.90
